sensor_id;sensor_type;location;lat;lon;timestamp;temperature;humidity
65239;SHT30;51827;51.186;6.926;2022-07-23T00:00:11;22.92;65.11
65239;SHT30;51827;51.186;6.926;2022-07-23T00:01:11;22.92;65.12
65239;SHT30;51827;51.186;6.926;2022-07-23T00:02:11;22.92;65.16
65239;SHT30;51827;51.186;6.926;2022-07-23T00:03:12;22.95;65.12
65239;SHT30;51827;51.186;6.926;2022-07-23T00:04:12;22.91;65.17
65239;SHT30;51827;51.186;6.926;2022-07-23T00:05:12;22.92;65.18
65239;SHT30;51827;51.186;6.926;2022-07-23T00:06:13;22.92;65.20
65239;SHT30;51827;51.186;6.926;2022-07-23T00:07:13;22.92;65.19
65239;SHT30;51827;51.186;6.926;2022-07-23T00:08:13;22.94;65.21
65239;SHT30;51827;51.186;6.926;2022-07-23T00:09:13;22.92;65.17
65239;SHT30;51827;51.186;6.926;2022-07-23T00:10:14;22.94;65.21
65239;SHT30;51827;51.186;6.926;2022-07-23T00:11:14;22.94;65.20
65239;SHT30;51827;51.186;6.926;2022-07-23T00:12:14;22.94;65.20
65239;SHT30;51827;51.186;6.926;2022-07-23T00:13:15;22.95;65.20
65239;SHT30;51827;51.186;6.926;2022-07-23T00:14:15;22.95;65.18
65239;SHT30;51827;51.186;6.926;2022-07-23T00:15:15;22.95;65.16
65239;SHT30;51827;51.186;6.926;2022-07-23T00:16:15;22.92;65.20
65239;SHT30;51827;51.186;6.926;2022-07-23T00:17:16;22.95;65.18
65239;SHT30;51827;51.186;6.926;2022-07-23T00:18:16;22.95;65.16
65239;SHT30;51827;51.186;6.926;2022-07-23T00:19:16;22.94;65.20
65239;SHT30;51827;51.186;6.926;2022-07-23T00:20:17;22.92;65.20
65239;SHT30;51827;51.186;6.926;2022-07-23T00:21:17;22.92;65.21
65239;SHT30;51827;51.186;6.926;2022-07-23T00:22:17;22.92;65.24
65239;SHT30;51827;51.186;6.926;2022-07-23T00:23:18;22.92;65.19
65239;SHT30;51827;51.186;6.926;2022-07-23T00:24:18;22.92;65.19
65239;SHT30;51827;51.186;6.926;2022-07-23T00:25:19;22.94;65.21
65239;SHT30;51827;51.186;6.926;2022-07-23T00:26:19;22.92;65.20
65239;SHT30;51827;51.186;6.926;2022-07-23T00:27:19;22.92;65.17
65239;SHT30;51827;51.186;6.926;2022-07-23T00:28:20;22.92;65.16
65239;SHT30;51827;51.186;6.926;2022-07-23T00:29:20;22.94;65.13
65239;SHT30;51827;51.186;6.926;2022-07-23T00:30:20;22.92;65.14
65239;SHT30;51827;51.186;6.926;2022-07-23T00:31:21;22.91;65.15
65239;SHT30;51827;51.186;6.926;2022-07-23T00:32:21;22.94;65.19
65239;SHT30;51827;51.186;6.926;2022-07-23T00:33:21;22.95;65.16
65239;SHT30;51827;51.186;6.926;2022-07-23T00:34:21;22.92;65.14
65239;SHT30;51827;51.186;6.926;2022-07-23T00:35:23;22.91;65.15
65239;SHT30;51827;51.186;6.926;2022-07-23T00:36:23;22.89;65.14
65239;SHT30;51827;51.186;6.926;2022-07-23T00:37:24;22.89;65.16
65239;SHT30;51827;51.186;6.926;2022-07-23T00:38:24;22.91;65.19
65239;SHT30;51827;51.186;6.926;2022-07-23T00:39:24;22.89;65.17
65239;SHT30;51827;51.186;6.926;2022-07-23T00:40:25;22.91;65.19
65239;SHT30;51827;51.186;6.926;2022-07-23T00:41:26;22.89;65.19
65239;SHT30;51827;51.186;6.926;2022-07-23T00:42:26;22.91;65.15
65239;SHT30;51827;51.186;6.926;2022-07-23T00:43:26;22.89;65.11
65239;SHT30;51827;51.186;6.926;2022-07-23T00:44:27;22.91;65.05
65239;SHT30;51827;51.186;6.926;2022-07-23T00:45:31;22.91;65.11
65239;SHT30;51827;51.186;6.926;2022-07-23T00:46:31;22.91;65.13
65239;SHT30;51827;51.186;6.926;2022-07-23T00:47:32;22.91;65.08
65239;SHT30;51827;51.186;6.926;2022-07-23T00:48:32;22.89;65.11
65239;SHT30;51827;51.186;6.926;2022-07-23T00:49:32;22.91;65.06
65239;SHT30;51827;51.186;6.926;2022-07-23T00:50:33;22.91;65.06
65239;SHT30;51827;51.186;6.926;2022-07-23T00:51:33;22.92;65.06
65239;SHT30;51827;51.186;6.926;2022-07-23T00:52:34;22.89;65.07
65239;SHT30;51827;51.186;6.926;2022-07-23T00:53:35;22.89;65.07
65239;SHT30;51827;51.186;6.926;2022-07-23T00:54:36;22.89;65.07
65239;SHT30;51827;51.186;6.926;2022-07-23T00:55:36;22.91;65.05
65239;SHT30;51827;51.186;6.926;2022-07-23T00:56:37;22.89;65.03
65239;SHT30;51827;51.186;6.926;2022-07-23T00:57:38;22.88;65.01
65239;SHT30;51827;51.186;6.926;2022-07-23T00:58:39;22.89;65.01
65239;SHT30;51827;51.186;6.926;2022-07-23T00:59:42;22.86;65.02
65239;SHT30;51827;51.186;6.926;2022-07-23T01:00:43;22.86;65.01
65239;SHT30;51827;51.186;6.926;2022-07-23T01:01:43;22.85;65.04
65239;SHT30;51827;51.186;6.926;2022-07-23T01:02:44;22.88;64.97
65239;SHT30;51827;51.186;6.926;2022-07-23T01:03:44;22.86;64.98
65239;SHT30;51827;51.186;6.926;2022-07-23T01:04:45;22.86;64.99
65239;SHT30;51827;51.186;6.926;2022-07-23T01:05:45;22.88;65.01
65239;SHT30;51827;51.186;6.926;2022-07-23T01:06:46;22.86;64.95
65239;SHT30;51827;51.186;6.926;2022-07-23T01:07:46;22.86;64.94
65239;SHT30;51827;51.186;6.926;2022-07-23T01:08:46;22.86;64.96
65239;SHT30;51827;51.186;6.926;2022-07-23T01:10:52;22.86;64.90
65239;SHT30;51827;51.186;6.926;2022-07-23T01:11:54;22.88;64.92
65239;SHT30;51827;51.186;6.926;2022-07-23T01:12:56;22.86;64.93
65239;SHT30;51827;51.186;6.926;2022-07-23T01:13:56;22.85;64.93
65239;SHT30;51827;51.186;6.926;2022-07-23T01:14:58;22.86;64.93
65239;SHT30;51827;51.186;6.926;2022-07-23T01:15:58;22.85;64.91
65239;SHT30;51827;51.186;6.926;2022-07-23T01:16:59;22.86;64.91
65239;SHT30;51827;51.186;6.926;2022-07-23T01:18:00;22.84;64.90
65239;SHT30;51827;51.186;6.926;2022-07-23T01:19:00;22.84;64.86
65239;SHT30;51827;51.186;6.926;2022-07-23T01:20:00;22.85;64.88
65239;SHT30;51827;51.186;6.926;2022-07-23T01:21:01;22.82;64.88
65239;SHT30;51827;51.186;6.926;2022-07-23T01:22:03;22.84;64.87
65239;SHT30;51827;51.186;6.926;2022-07-23T01:23:03;22.85;64.82
65239;SHT30;51827;51.186;6.926;2022-07-23T01:24:04;22.84;64.88
65239;SHT30;51827;51.186;6.926;2022-07-23T01:25:05;22.82;64.87
65239;SHT30;51827;51.186;6.926;2022-07-23T01:26:05;22.85;64.89
65239;SHT30;51827;51.186;6.926;2022-07-23T01:27:06;22.86;64.90
65239;SHT30;51827;51.186;6.926;2022-07-23T01:28:06;22.84;64.89
65239;SHT30;51827;51.186;6.926;2022-07-23T01:29:06;22.84;64.86
65239;SHT30;51827;51.186;6.926;2022-07-23T01:30:07;22.84;64.90
65239;SHT30;51827;51.186;6.926;2022-07-23T01:31:07;22.85;64.93
65239;SHT30;51827;51.186;6.926;2022-07-23T01:32:07;22.84;64.90
65239;SHT30;51827;51.186;6.926;2022-07-23T01:33:08;22.86;64.88
65239;SHT30;51827;51.186;6.926;2022-07-23T01:34:08;22.82;64.88
65239;SHT30;51827;51.186;6.926;2022-07-23T01:35:09;22.82;64.89
65239;SHT30;51827;51.186;6.926;2022-07-23T01:36:09;22.84;64.89
65239;SHT30;51827;51.186;6.926;2022-07-23T01:37:10;22.85;64.88
65239;SHT30;51827;51.186;6.926;2022-07-23T01:38:10;22.84;64.89
65239;SHT30;51827;51.186;6.926;2022-07-23T01:39:10;22.82;64.85
65239;SHT30;51827;51.186;6.926;2022-07-23T01:40:10;22.84;64.87
65239;SHT30;51827;51.186;6.926;2022-07-23T01:41:11;22.85;64.81
65239;SHT30;51827;51.186;6.926;2022-07-23T01:42:11;22.85;64.84
65239;SHT30;51827;51.186;6.926;2022-07-23T01:43:11;22.84;64.81
65239;SHT30;51827;51.186;6.926;2022-07-23T01:44:11;22.85;64.83
65239;SHT30;51827;51.186;6.926;2022-07-23T01:45:12;22.84;64.85
65239;SHT30;51827;51.186;6.926;2022-07-23T01:46:12;22.84;64.82
65239;SHT30;51827;51.186;6.926;2022-07-23T01:47:12;22.81;64.84
65239;SHT30;51827;51.186;6.926;2022-07-23T01:48:13;22.82;64.84
65239;SHT30;51827;51.186;6.926;2022-07-23T01:49:13;22.84;64.85
65239;SHT30;51827;51.186;6.926;2022-07-23T01:50:13;22.84;64.85
65239;SHT30;51827;51.186;6.926;2022-07-23T01:51:14;22.81;64.85
65239;SHT30;51827;51.186;6.926;2022-07-23T01:52:14;22.82;64.87
65239;SHT30;51827;51.186;6.926;2022-07-23T01:53:15;22.84;64.86
65239;SHT30;51827;51.186;6.926;2022-07-23T01:54:15;22.82;64.85
65239;SHT30;51827;51.186;6.926;2022-07-23T01:55:15;22.84;64.87
65239;SHT30;51827;51.186;6.926;2022-07-23T01:56:15;22.79;64.88
65239;SHT30;51827;51.186;6.926;2022-07-23T01:57:16;22.79;64.84
65239;SHT30;51827;51.186;6.926;2022-07-23T01:58:16;22.81;64.85
65239;SHT30;51827;51.186;6.926;2022-07-23T01:59:16;22.84;64.87
65239;SHT30;51827;51.186;6.926;2022-07-23T02:00:17;22.82;64.90
65239;SHT30;51827;51.186;6.926;2022-07-23T02:01:17;22.82;64.89
65239;SHT30;51827;51.186;6.926;2022-07-23T02:02:17;22.84;64.90
65239;SHT30;51827;51.186;6.926;2022-07-23T02:03:17;22.81;64.84
65239;SHT30;51827;51.186;6.926;2022-07-23T02:04:21;22.82;64.87
65239;SHT30;51827;51.186;6.926;2022-07-23T02:05:22;22.81;64.85
65239;SHT30;51827;51.186;6.926;2022-07-23T02:06:22;22.81;64.88
65239;SHT30;51827;51.186;6.926;2022-07-23T02:07:22;22.81;64.87
65239;SHT30;51827;51.186;6.926;2022-07-23T02:08:23;22.81;64.84
65239;SHT30;51827;51.186;6.926;2022-07-23T02:09:23;22.79;64.82
65239;SHT30;51827;51.186;6.926;2022-07-23T02:10:24;22.79;64.88
65239;SHT30;51827;51.186;6.926;2022-07-23T02:11:24;22.76;64.80
65239;SHT30;51827;51.186;6.926;2022-07-23T02:12:24;22.81;64.83
65239;SHT30;51827;51.186;6.926;2022-07-23T02:13:24;22.79;64.84
65239;SHT30;51827;51.186;6.926;2022-07-23T02:14:25;22.79;64.86
65239;SHT30;51827;51.186;6.926;2022-07-23T02:15:26;22.79;64.85
65239;SHT30;51827;51.186;6.926;2022-07-23T02:16:26;22.81;64.83
65239;SHT30;51827;51.186;6.926;2022-07-23T02:17:26;22.79;64.79
65239;SHT30;51827;51.186;6.926;2022-07-23T02:18:27;22.81;64.77
65239;SHT30;51827;51.186;6.926;2022-07-23T02:19:27;22.81;64.78
65239;SHT30;51827;51.186;6.926;2022-07-23T02:20:27;22.78;64.77
65239;SHT30;51827;51.186;6.926;2022-07-23T02:21:27;22.76;64.77
65239;SHT30;51827;51.186;6.926;2022-07-23T02:22:28;22.79;64.73
65239;SHT30;51827;51.186;6.926;2022-07-23T02:23:28;22.79;64.77
65239;SHT30;51827;51.186;6.926;2022-07-23T02:24:28;22.79;64.77
65239;SHT30;51827;51.186;6.926;2022-07-23T02:25:28;22.79;64.73
65239;SHT30;51827;51.186;6.926;2022-07-23T02:26:29;22.78;64.71
65239;SHT30;51827;51.186;6.926;2022-07-23T02:27:29;22.75;64.78
65239;SHT30;51827;51.186;6.926;2022-07-23T02:28:29;22.76;64.69
65239;SHT30;51827;51.186;6.926;2022-07-23T02:29:29;22.78;64.71
65239;SHT30;51827;51.186;6.926;2022-07-23T02:30:30;22.73;64.68
65239;SHT30;51827;51.186;6.926;2022-07-23T02:31:30;22.78;64.69
65239;SHT30;51827;51.186;6.926;2022-07-23T02:32:30;22.78;64.69
65239;SHT30;51827;51.186;6.926;2022-07-23T02:33:31;22.76;64.63
65239;SHT30;51827;51.186;6.926;2022-07-23T02:34:31;22.75;64.65
65239;SHT30;51827;51.186;6.926;2022-07-23T02:35:31;22.73;64.64
65239;SHT30;51827;51.186;6.926;2022-07-23T02:36:32;22.76;64.59
65239;SHT30;51827;51.186;6.926;2022-07-23T02:37:32;22.76;64.61
65239;SHT30;51827;51.186;6.926;2022-07-23T02:38:33;22.75;64.63
65239;SHT30;51827;51.186;6.926;2022-07-23T02:39:33;22.75;64.58
65239;SHT30;51827;51.186;6.926;2022-07-23T02:40:33;22.73;64.61
65239;SHT30;51827;51.186;6.926;2022-07-23T02:41:33;22.72;64.58
65239;SHT30;51827;51.186;6.926;2022-07-23T02:42:34;22.75;64.56
65239;SHT30;51827;51.186;6.926;2022-07-23T02:43:34;22.75;64.57
65239;SHT30;51827;51.186;6.926;2022-07-23T02:44:34;22.73;64.50
65239;SHT30;51827;51.186;6.926;2022-07-23T02:45:34;22.75;64.52
65239;SHT30;51827;51.186;6.926;2022-07-23T02:46:35;22.75;64.47
65239;SHT30;51827;51.186;6.926;2022-07-23T02:47:35;22.73;64.47
65239;SHT30;51827;51.186;6.926;2022-07-23T02:48:35;22.72;64.48
65239;SHT30;51827;51.186;6.926;2022-07-23T02:49:36;22.73;64.44
65239;SHT30;51827;51.186;6.926;2022-07-23T02:50:36;22.71;64.45
65239;SHT30;51827;51.186;6.926;2022-07-23T02:51:36;22.73;64.46
65239;SHT30;51827;51.186;6.926;2022-07-23T02:52:36;22.75;64.44
65239;SHT30;51827;51.186;6.926;2022-07-23T02:53:37;22.73;64.40
65239;SHT30;51827;51.186;6.926;2022-07-23T02:54:37;22.71;64.37
65239;SHT30;51827;51.186;6.926;2022-07-23T02:55:38;22.71;64.39
65239;SHT30;51827;51.186;6.926;2022-07-23T02:56:38;22.71;64.37
65239;SHT30;51827;51.186;6.926;2022-07-23T02:57:38;22.71;64.38
65239;SHT30;51827;51.186;6.926;2022-07-23T02:58:39;22.72;64.35
65239;SHT30;51827;51.186;6.926;2022-07-23T02:59:39;22.72;64.32
65239;SHT30;51827;51.186;6.926;2022-07-23T03:00:39;22.71;64.29
65239;SHT30;51827;51.186;6.926;2022-07-23T03:01:40;22.71;64.30
65239;SHT30;51827;51.186;6.926;2022-07-23T03:02:40;22.72;64.30
65239;SHT30;51827;51.186;6.926;2022-07-23T03:03:40;22.71;64.26
65239;SHT30;51827;51.186;6.926;2022-07-23T03:04:41;22.68;64.27
65239;SHT30;51827;51.186;6.926;2022-07-23T03:05:41;22.69;64.25
65239;SHT30;51827;51.186;6.926;2022-07-23T03:06:41;22.68;64.21
65239;SHT30;51827;51.186;6.926;2022-07-23T03:07:41;22.71;64.22
65239;SHT30;51827;51.186;6.926;2022-07-23T03:08:42;22.68;64.23
65239;SHT30;51827;51.186;6.926;2022-07-23T03:09:42;22.69;64.19
65239;SHT30;51827;51.186;6.926;2022-07-23T03:10:42;22.69;64.17
65239;SHT30;51827;51.186;6.926;2022-07-23T03:11:43;22.68;64.18
65239;SHT30;51827;51.186;6.926;2022-07-23T03:12:43;22.68;64.21
65239;SHT30;51827;51.186;6.926;2022-07-23T03:13:43;22.68;64.19
65239;SHT30;51827;51.186;6.926;2022-07-23T03:14:44;22.68;64.16
65239;SHT30;51827;51.186;6.926;2022-07-23T03:15:44;22.69;64.14
65239;SHT30;51827;51.186;6.926;2022-07-23T03:16:44;22.68;64.12
65239;SHT30;51827;51.186;6.926;2022-07-23T03:17:44;22.68;64.08
65239;SHT30;51827;51.186;6.926;2022-07-23T03:18:45;22.66;64.08
65239;SHT30;51827;51.186;6.926;2022-07-23T03:19:45;22.65;64.05
65239;SHT30;51827;51.186;6.926;2022-07-23T03:20:45;22.68;64.04
65239;SHT30;51827;51.186;6.926;2022-07-23T03:21:46;22.66;64.01
65239;SHT30;51827;51.186;6.926;2022-07-23T03:22:46;22.65;63.96
65239;SHT30;51827;51.186;6.926;2022-07-23T03:23:46;22.66;63.95
65239;SHT30;51827;51.186;6.926;2022-07-23T03:24:46;22.66;64.00
65239;SHT30;51827;51.186;6.926;2022-07-23T03:25:47;22.65;63.98
65239;SHT30;51827;51.186;6.926;2022-07-23T03:26:47;22.66;63.96
65239;SHT30;51827;51.186;6.926;2022-07-23T03:27:47;22.66;63.93
65239;SHT30;51827;51.186;6.926;2022-07-23T03:28:47;22.64;63.93
65239;SHT30;51827;51.186;6.926;2022-07-23T03:29:49;22.62;63.93
65239;SHT30;51827;51.186;6.926;2022-07-23T03:30:49;22.65;63.93
65239;SHT30;51827;51.186;6.926;2022-07-23T03:31:49;22.65;63.91
65239;SHT30;51827;51.186;6.926;2022-07-23T03:32:49;22.62;63.94
65239;SHT30;51827;51.186;6.926;2022-07-23T03:33:50;22.65;63.92
65239;SHT30;51827;51.186;6.926;2022-07-23T03:34:50;22.62;63.91
65239;SHT30;51827;51.186;6.926;2022-07-23T03:35:51;22.61;63.93
65239;SHT30;51827;51.186;6.926;2022-07-23T03:36:51;22.62;63.87
65239;SHT30;51827;51.186;6.926;2022-07-23T03:37:51;22.61;63.88
65239;SHT30;51827;51.186;6.926;2022-07-23T03:38:52;22.61;63.88
65239;SHT30;51827;51.186;6.926;2022-07-23T03:39:52;22.59;63.87
65239;SHT30;51827;51.186;6.926;2022-07-23T03:40:53;22.62;63.85
65239;SHT30;51827;51.186;6.926;2022-07-23T03:41:53;22.61;63.86
65239;SHT30;51827;51.186;6.926;2022-07-23T03:42:53;22.61;63.89
65239;SHT30;51827;51.186;6.926;2022-07-23T03:43:53;22.61;63.87
65239;SHT30;51827;51.186;6.926;2022-07-23T03:44:54;22.61;63.82
65239;SHT30;51827;51.186;6.926;2022-07-23T03:45:54;22.58;63.87
65239;SHT30;51827;51.186;6.926;2022-07-23T03:46:54;22.61;63.89
65239;SHT30;51827;51.186;6.926;2022-07-23T03:47:54;22.62;63.84
65239;SHT30;51827;51.186;6.926;2022-07-23T03:48:55;22.59;63.85
65239;SHT30;51827;51.186;6.926;2022-07-23T03:49:55;22.58;63.84
65239;SHT30;51827;51.186;6.926;2022-07-23T03:50:55;22.59;63.81
65239;SHT30;51827;51.186;6.926;2022-07-23T03:51:55;22.58;63.85
65239;SHT30;51827;51.186;6.926;2022-07-23T03:52:56;22.61;63.78
65239;SHT30;51827;51.186;6.926;2022-07-23T03:53:56;22.58;63.77
65239;SHT30;51827;51.186;6.926;2022-07-23T03:54:56;22.58;63.82
65239;SHT30;51827;51.186;6.926;2022-07-23T03:55:57;22.56;63.78
65239;SHT30;51827;51.186;6.926;2022-07-23T03:56:57;22.58;63.79
65239;SHT30;51827;51.186;6.926;2022-07-23T03:57:57;22.58;63.78
65239;SHT30;51827;51.186;6.926;2022-07-23T03:58:57;22.58;63.76
65239;SHT30;51827;51.186;6.926;2022-07-23T03:59:58;22.58;63.74
65239;SHT30;51827;51.186;6.926;2022-07-23T04:00:58;22.58;63.73
65239;SHT30;51827;51.186;6.926;2022-07-23T04:01:58;22.56;63.69
65239;SHT30;51827;51.186;6.926;2022-07-23T04:02:59;22.58;63.69
65239;SHT30;51827;51.186;6.926;2022-07-23T04:03:59;22.56;63.71
65239;SHT30;51827;51.186;6.926;2022-07-23T04:04:59;22.54;63.65
65239;SHT30;51827;51.186;6.926;2022-07-23T04:05:59;22.56;63.66
65239;SHT30;51827;51.186;6.926;2022-07-23T04:07:00;22.56;63.60
65239;SHT30;51827;51.186;6.926;2022-07-23T04:08:00;22.58;63.60
65239;SHT30;51827;51.186;6.926;2022-07-23T04:09:00;22.55;63.58
65239;SHT30;51827;51.186;6.926;2022-07-23T04:10:01;22.56;63.58
65239;SHT30;51827;51.186;6.926;2022-07-23T04:11:01;22.55;63.60
65239;SHT30;51827;51.186;6.926;2022-07-23T04:12:02;22.54;63.57
65239;SHT30;51827;51.186;6.926;2022-07-23T04:13:02;22.54;63.60
65239;SHT30;51827;51.186;6.926;2022-07-23T04:14:02;22.55;63.55
65239;SHT30;51827;51.186;6.926;2022-07-23T04:15:03;22.55;63.57
65239;SHT30;51827;51.186;6.926;2022-07-23T04:16:03;22.55;63.57
65239;SHT30;51827;51.186;6.926;2022-07-23T04:17:04;22.55;63.60
65239;SHT30;51827;51.186;6.926;2022-07-23T04:18:04;22.52;63.56
65239;SHT30;51827;51.186;6.926;2022-07-23T04:19:04;22.54;63.54
65239;SHT30;51827;51.186;6.926;2022-07-23T04:20:05;22.54;63.55
65239;SHT30;51827;51.186;6.926;2022-07-23T04:21:05;22.52;63.54
65239;SHT30;51827;51.186;6.926;2022-07-23T04:22:07;22.54;63.52
65239;SHT30;51827;51.186;6.926;2022-07-23T04:23:07;22.51;63.50
65239;SHT30;51827;51.186;6.926;2022-07-23T04:24:08;22.54;63.50
65239;SHT30;51827;51.186;6.926;2022-07-23T04:25:08;22.51;63.53
65239;SHT30;51827;51.186;6.926;2022-07-23T04:26:08;22.51;63.52
65239;SHT30;51827;51.186;6.926;2022-07-23T04:27:09;22.52;63.52
65239;SHT30;51827;51.186;6.926;2022-07-23T04:28:09;22.52;63.47
65239;SHT30;51827;51.186;6.926;2022-07-23T04:29:09;22.51;63.50
65239;SHT30;51827;51.186;6.926;2022-07-23T04:30:10;22.51;63.51
65239;SHT30;51827;51.186;6.926;2022-07-23T04:31:10;22.51;63.52
65239;SHT30;51827;51.186;6.926;2022-07-23T04:32:10;22.49;63.51
65239;SHT30;51827;51.186;6.926;2022-07-23T04:33:11;22.49;63.49
65239;SHT30;51827;51.186;6.926;2022-07-23T04:34:11;22.48;63.48
65239;SHT30;51827;51.186;6.926;2022-07-23T04:35:11;22.51;63.46
65239;SHT30;51827;51.186;6.926;2022-07-23T04:36:11;22.47;63.47
65239;SHT30;51827;51.186;6.926;2022-07-23T04:37:12;22.52;63.48
65239;SHT30;51827;51.186;6.926;2022-07-23T04:38:12;22.49;63.48
65239;SHT30;51827;51.186;6.926;2022-07-23T04:39:12;22.49;63.49
65239;SHT30;51827;51.186;6.926;2022-07-23T04:40:13;22.51;63.48
65239;SHT30;51827;51.186;6.926;2022-07-23T04:41:13;22.49;63.49
65239;SHT30;51827;51.186;6.926;2022-07-23T04:42:13;22.49;63.51
65239;SHT30;51827;51.186;6.926;2022-07-23T04:43:14;22.49;63.50
65239;SHT30;51827;51.186;6.926;2022-07-23T04:44:14;22.47;63.52
65239;SHT30;51827;51.186;6.926;2022-07-23T04:45:14;22.48;63.53
65239;SHT30;51827;51.186;6.926;2022-07-23T04:46:15;22.48;63.54
65239;SHT30;51827;51.186;6.926;2022-07-23T04:47:15;22.49;63.53
65239;SHT30;51827;51.186;6.926;2022-07-23T04:48:15;22.47;63.58
65239;SHT30;51827;51.186;6.926;2022-07-23T04:49:15;22.47;63.55
65239;SHT30;51827;51.186;6.926;2022-07-23T04:50:16;22.48;63.59
65239;SHT30;51827;51.186;6.926;2022-07-23T04:51:16;22.49;63.55
65239;SHT30;51827;51.186;6.926;2022-07-23T04:52:17;22.51;63.61
65239;SHT30;51827;51.186;6.926;2022-07-23T04:53:17;22.52;63.59
65239;SHT30;51827;51.186;6.926;2022-07-23T04:54:18;22.48;63.64
65239;SHT30;51827;51.186;6.926;2022-07-23T04:55:18;22.49;63.60
65239;SHT30;51827;51.186;6.926;2022-07-23T04:56:19;22.49;63.66
65239;SHT30;51827;51.186;6.926;2022-07-23T04:57:19;22.48;63.68
65239;SHT30;51827;51.186;6.926;2022-07-23T04:58:19;22.48;63.70
65239;SHT30;51827;51.186;6.926;2022-07-23T04:59:19;22.47;63.74
65239;SHT30;51827;51.186;6.926;2022-07-23T05:00:20;22.47;63.80
65239;SHT30;51827;51.186;6.926;2022-07-23T05:01:20;22.47;63.79
65239;SHT30;51827;51.186;6.926;2022-07-23T05:02:20;22.47;63.83
65239;SHT30;51827;51.186;6.926;2022-07-23T05:03:20;22.49;63.85
65239;SHT30;51827;51.186;6.926;2022-07-23T05:04:21;22.47;63.92
65239;SHT30;51827;51.186;6.926;2022-07-23T05:05:21;22.44;63.93
65239;SHT30;51827;51.186;6.926;2022-07-23T05:06:21;22.45;63.95
65239;SHT30;51827;51.186;6.926;2022-07-23T05:07:22;22.45;64.00
65239;SHT30;51827;51.186;6.926;2022-07-23T05:08:22;22.47;64.03
65239;SHT30;51827;51.186;6.926;2022-07-23T05:09:23;22.48;64.04
65239;SHT30;51827;51.186;6.926;2022-07-23T05:10:23;22.48;64.07
65239;SHT30;51827;51.186;6.926;2022-07-23T05:11:23;22.47;64.05
65239;SHT30;51827;51.186;6.926;2022-07-23T05:12:23;22.45;64.10
65239;SHT30;51827;51.186;6.926;2022-07-23T05:13:24;22.48;64.12
65239;SHT30;51827;51.186;6.926;2022-07-23T05:14:24;22.48;64.12
65239;SHT30;51827;51.186;6.926;2022-07-23T05:15:24;22.49;64.15
65239;SHT30;51827;51.186;6.926;2022-07-23T05:16:25;22.47;64.17
65239;SHT30;51827;51.186;6.926;2022-07-23T05:17:25;22.48;64.19
65239;SHT30;51827;51.186;6.926;2022-07-23T05:18:25;22.49;64.23
65239;SHT30;51827;51.186;6.926;2022-07-23T05:19:25;22.47;64.27
65239;SHT30;51827;51.186;6.926;2022-07-23T05:20:26;22.48;64.30
65239;SHT30;51827;51.186;6.926;2022-07-23T05:21:26;22.48;64.28
65239;SHT30;51827;51.186;6.926;2022-07-23T05:22:26;22.48;64.33
65239;SHT30;51827;51.186;6.926;2022-07-23T05:23:27;22.47;64.34
65239;SHT30;51827;51.186;6.926;2022-07-23T05:24:27;22.47;64.41
65239;SHT30;51827;51.186;6.926;2022-07-23T05:25:27;22.49;64.41
65239;SHT30;51827;51.186;6.926;2022-07-23T05:26:28;22.49;64.46
65239;SHT30;51827;51.186;6.926;2022-07-23T05:27:28;22.48;64.45
65239;SHT30;51827;51.186;6.926;2022-07-23T05:28:28;22.48;64.45
65239;SHT30;51827;51.186;6.926;2022-07-23T05:29:28;22.48;64.48
65239;SHT30;51827;51.186;6.926;2022-07-23T05:30:29;22.47;64.51
65239;SHT30;51827;51.186;6.926;2022-07-23T05:31:29;22.51;64.50
65239;SHT30;51827;51.186;6.926;2022-07-23T05:32:31;22.51;64.57
65239;SHT30;51827;51.186;6.926;2022-07-23T05:33:31;22.54;64.79
65239;SHT30;51827;51.186;6.926;2022-07-23T05:34:32;22.52;65.05
65239;SHT30;51827;51.186;6.926;2022-07-23T05:35:32;22.52;65.19
65239;SHT30;51827;51.186;6.926;2022-07-23T05:36:33;22.51;65.29
65239;SHT30;51827;51.186;6.926;2022-07-23T05:37:33;22.48;65.41
65239;SHT30;51827;51.186;6.926;2022-07-23T05:38:33;22.47;65.63
65239;SHT30;51827;51.186;6.926;2022-07-23T05:39:34;22.44;65.70
65239;SHT30;51827;51.186;6.926;2022-07-23T05:40:34;22.44;65.83
65239;SHT30;51827;51.186;6.926;2022-07-23T05:41:34;22.42;65.86
65239;SHT30;51827;51.186;6.926;2022-07-23T05:42:36;22.42;65.91
65239;SHT30;51827;51.186;6.926;2022-07-23T05:43:36;22.37;66.02
65239;SHT30;51827;51.186;6.926;2022-07-23T05:44:36;22.37;66.13
65239;SHT30;51827;51.186;6.926;2022-07-23T05:45:36;22.31;66.24
65239;SHT30;51827;51.186;6.926;2022-07-23T05:46:37;22.32;66.24
65239;SHT30;51827;51.186;6.926;2022-07-23T05:47:47;22.28;66.29
65239;SHT30;51827;51.186;6.926;2022-07-23T05:48:48;22.28;66.28
65239;SHT30;51827;51.186;6.926;2022-07-23T05:49:48;22.27;66.26
65239;SHT30;51827;51.186;6.926;2022-07-23T05:50:48;22.28;66.12
65239;SHT30;51827;51.186;6.926;2022-07-23T05:51:49;22.24;66.15
65239;SHT30;51827;51.186;6.926;2022-07-23T05:52:49;22.24;66.09
65239;SHT30;51827;51.186;6.926;2022-07-23T05:53:50;22.28;66.09
65239;SHT30;51827;51.186;6.926;2022-07-23T05:54:50;22.30;65.94
65239;SHT30;51827;51.186;6.926;2022-07-23T05:55:50;22.31;65.60
65239;SHT30;51827;51.186;6.926;2022-07-23T05:56:51;22.32;65.66
65239;SHT30;51827;51.186;6.926;2022-07-23T05:57:51;22.34;65.86
65239;SHT30;51827;51.186;6.926;2022-07-23T05:58:51;22.37;65.93
65239;SHT30;51827;51.186;6.926;2022-07-23T05:59:51;22.38;66.12
65239;SHT30;51827;51.186;6.926;2022-07-23T06:00:52;22.37;66.22
65239;SHT30;51827;51.186;6.926;2022-07-23T06:01:52;22.41;66.45
65239;SHT30;51827;51.186;6.926;2022-07-23T06:02:52;22.37;66.51
65239;SHT30;51827;51.186;6.926;2022-07-23T06:03:52;22.38;66.60
65239;SHT30;51827;51.186;6.926;2022-07-23T06:04:53;22.41;66.65
65239;SHT30;51827;51.186;6.926;2022-07-23T06:05:53;22.38;66.79
65239;SHT30;51827;51.186;6.926;2022-07-23T06:06:53;22.40;67.00
65239;SHT30;51827;51.186;6.926;2022-07-23T06:07:53;22.37;67.07
65239;SHT30;51827;51.186;6.926;2022-07-23T06:08:54;22.34;67.16
65239;SHT30;51827;51.186;6.926;2022-07-23T06:09:54;22.35;67.18
65239;SHT30;51827;51.186;6.926;2022-07-23T06:10:54;22.34;67.60
65239;SHT30;51827;51.186;6.926;2022-07-23T06:11:54;22.31;67.62
65239;SHT30;51827;51.186;6.926;2022-07-23T06:12:55;22.31;67.66
65239;SHT30;51827;51.186;6.926;2022-07-23T06:13:55;22.30;67.49
65239;SHT30;51827;51.186;6.926;2022-07-23T06:14:55;22.31;67.32
65239;SHT30;51827;51.186;6.926;2022-07-23T06:15:56;22.30;67.19
65239;SHT30;51827;51.186;6.926;2022-07-23T06:16:56;22.31;67.20
65239;SHT30;51827;51.186;6.926;2022-07-23T06:17:56;22.34;67.17
65239;SHT30;51827;51.186;6.926;2022-07-23T06:18:57;22.32;67.21
65239;SHT30;51827;51.186;6.926;2022-07-23T06:19:57;22.28;67.17
65239;SHT30;51827;51.186;6.926;2022-07-23T06:20:57;22.30;67.31
65239;SHT30;51827;51.186;6.926;2022-07-23T06:21:57;22.30;67.28